Time;durP1;ratioP1;P1;durP2;ratioP2;P2;SDS_P1;SDS_P2;PMS_P1;PMS_P2;Temp;Humidity;BMP_temperature;BMP_pressure;BME280_temperature;BME280_humidity;BME280_pressure;Samples;Min_cycle;Max_cycle;Signal;HPM_P1;HPM_P2
2022/09/21 00:01:26;;;;;;;4.75;2.00;;;;;;;17.95;70.03;102207.88;7386483;19;20487;-81
2022/09/21 00:03:57;;;;;;;7.60;2.30;;;;;;;17.96;69.94;102206.91;7390710;19;20018;-81
2022/09/21 00:06:25;;;;;;;8.10;2.30;;;;;;;17.94;70.13;102207.06;7385213;19;20014;-83
2022/09/21 00:08:53;;;;;;;5.18;2.05;;;;;;;17.94;70.07;102206.22;7388053;19;20019;-81
2022/09/21 00:11:25;;;;;;;5.78;1.85;;;;;;;17.91;70.49;102204.72;7388084;19;20003;-82
2022/09/21 00:13:55;;;;;;;7.10;2.50;;;;;;;17.89;70.46;102201.38;7389278;19;20025;-82
2022/09/21 00:16:21;;;;;;;6.70;2.13;;;;;;;17.88;70.44;102197.06;7386531;19;20048;-83
2022/09/21 00:18:49;;;;;;;5.55;2.15;;;;;;;17.88;70.80;102202.38;7387685;19;20022;-84
2022/09/21 00:21:17;;;;;;;5.47;2.08;;;;;;;17.88;70.81;102196.22;7390219;19;20495;-84
2022/09/21 00:23:45;;;;;;;6.55;2.28;;;;;;;17.89;70.56;102192.56;7388362;19;20035;-82
2022/09/21 00:26:16;;;;;;;5.85;2.00;;;;;;;17.90;70.37;102200.41;7387229;19;20471;-83
2022/09/21 00:28:44;;;;;;;8.05;2.53;;;;;;;17.88;70.42;102202.38;7385674;19;20400;-81
2022/09/21 00:31:16;;;;;;;5.40;2.33;;;;;;;17.87;70.26;102195.41;7383575;19;20126;-81
2022/09/21 00:33:43;;;;;;;5.47;2.50;;;;;;;17.85;70.71;102199.22;7385474;19;20459;-81
2022/09/21 00:36:15;;;;;;;5.90;2.38;;;;;;;17.83;70.75;102199.38;7387308;19;20022;-82
2022/09/21 00:38:59;;;;;;;6.97;2.30;;;;;;;17.82;71.01;102207.56;7384973;19;20019;-83
2022/09/21 00:41:29;;;;;;;7.57;3.25;;;;;;;17.81;70.73;102206.72;7387296;19;20018;-83
2022/09/21 00:44:06;;;;;;;5.80;2.50;;;;;;;17.81;70.86;102193.41;7385566;19;20031;-82
2022/09/21 00:46:36;;;;;;;10.35;2.45;;;;;;;17.79;70.91;102203.38;7386525;19;20472;-82
2022/09/21 00:49:04;;;;;;;5.63;2.20;;;;;;;17.77;70.63;102210.72;7385018;19;20097;-84
2022/09/21 00:51:31;;;;;;;5.38;1.98;;;;;;;17.77;71.31;102209.88;7387397;19;20034;-85
2022/09/21 00:54:06;;;;;;;9.63;2.75;;;;;;;17.76;71.63;102197.56;7387854;19;20582;-82
2022/09/21 00:56:36;;;;;;;7.93;2.88;;;;;;;17.77;71.71;102209.88;7388144;19;20469;-83
2022/09/21 00:59:04;;;;;;;5.85;2.55;;;;;;;17.77;71.64;102201.91;7314999;19;1386465;-82
2022/09/21 01:01:33;;;;;;;7.80;3.05;;;;;;;17.79;71.40;102205.22;7390915;19;20039;-82
2022/09/21 01:04:00;;;;;;;7.82;2.13;;;;;;;17.78;71.67;102200.88;7384939;19;20018;-84
2022/09/21 01:06:28;;;;;;;6.25;2.38;;;;;;;17.78;71.87;102201.72;7389220;19;20011;-82
2022/09/21 01:08:57;;;;;;;6.68;2.17;;;;;;;17.78;72.07;102196.38;7388878;19;20048;-82
2022/09/21 01:11:26;;;;;;;8.40;2.65;;;;;;;17.78;72.11;102200.88;7389673;19;20353;-82
2022/09/21 01:14:13;;;;;;;4.70;2.13;;;;;;;17.80;71.90;102201.56;7392934;19;20048;-83
2022/09/21 01:16:53;;;;;;;6.97;2.20;;;;;;;17.80;71.84;102198.91;7391448;19;20483;-82
2022/09/21 01:19:26;;;;;;;9.30;2.03;;;;;;;17.79;71.80;102198.06;7373562;19;20022;-82
2022/09/21 01:22:03;;;;;;;5.35;1.90;;;;;;;17.80;72.25;102202.41;7383676;19;20019;-81
2022/09/21 01:24:41;;;;;;;5.60;2.05;;;;;;;17.79;72.27;102198.06;7391362;19;20018;-81
2022/09/21 01:27:16;;;;;;;7.90;2.83;;;;;;;17.80;72.76;102199.72;7390833;19;20022;-83
2022/09/21 01:29:53;;;;;;;6.03;2.05;;;;;;;17.80;72.92;102204.22;7367926;19;20015;-83
2022/09/21 01:32:32;;;;;;;7.55;2.25;;;;;;;17.81;72.86;102200.56;7383876;19;20468;-81
2022/09/21 01:35:12;;;;;;;7.85;2.10;;;;;;;17.80;72.46;102209.56;7387252;19;20081;-83
2022/09/21 01:37:43;;;;;;;6.50;2.05;;;;;;;17.78;72.81;102201.72;7390703;19;20604;-83
2022/09/21 01:40:18;;;;;;;6.22;2.20;;;;;;;17.75;72.90;102207.38;7368799;19;20018;-82
2022/09/21 01:42:48;;;;;;;7.30;2.72;;;;;;;17.74;73.43;102211.03;7381370;19;20069;-82
2022/09/21 01:45:21;;;;;;;5.80;2.13;;;;;;;17.72;73.36;102202.41;7388040;19;20011;-82
2022/09/21 01:48:04;;;;;;;4.72;1.85;;;;;;;17.72;73.23;102204.22;7385247;19;20021;-82
2022/09/21 01:50:37;;;;;;;6.03;2.13;;;;;;;17.70;73.75;102196.41;7367216;19;20019;-82
2022/09/21 01:53:10;;;;;;;5.53;2.15;;;;;;;17.71;73.47;102199.91;7385524;19;20290;-82
2022/09/21 01:55:48;;;;;;;4.55;1.70;;;;;;;17.71;73.48;102199.91;7389244;19;20412;-82
2022/09/21 01:58:22;;;;;;;5.70;2.20;;;;;;;17.70;73.54;102201.72;7385370;19;20021;-83
2022/09/21 02:00:54;;;;;;;7.70;2.53;;;;;;;17.67;73.42;102190.59;7369143;19;20371;-82
2022/09/21 02:03:32;;;;;;;7.90;2.30;;;;;;;17.67;73.02;102196.75;7381961;19;20011;-82
2022/09/21 02:06:00;;;;;;;6.25;2.20;;;;;;;17.65;73.10;102196.06;7386051;19;20377;-82
2022/09/21 02:08:31;;;;;;;5.03;2.20;;;;;;;17.66;73.00;102192.41;7382791;19;20006;-82
2022/09/21 02:11:00;;;;;;;5.95;2.00;;;;;;;17.67;72.94;102194.09;7385881;19;20011;-83
2022/09/21 02:13:32;;;;;;;6.60;2.15;;;;;;;17.67;73.11;102193.25;7387353;19;20350;-82
2022/09/21 02:16:11;;;;;;;5.13;1.85;;;;;;;17.67;72.79;102190.59;7384975;19;20049;-82
2022/09/21 02:18:39;;;;;;;5.22;2.03;;;;;;;17.67;73.32;102195.91;7389381;19;20006;-83
2022/09/21 02:21:15;;;;;;;19.02;3.05;;;;;;;17.67;73.02;102198.56;7389126;19;20022;-82
2022/09/21 02:23:52;;;;;;;4.63;2.38;;;;;;;17.63;72.40;102190.06;7389096;19;20022;-83
2022/09/21 02:26:28;;;;;;;7.05;2.30;;;;;;;17.61;72.68;102194.72;7387138;19;20043;-83
2022/09/21 02:29:06;;;;;;;6.00;2.00;;;;;;;17.58;73.07;102189.69;7389206;19;20295;-82
2022/09/21 02:31:47;;;;;;;9.45;2.70;;;;;;;17.58;73.10;102192.34;7385759;19;20015;-83
2022/09/21 02:34:21;;;;;;;4.75;2.60;;;;;;;17.57;73.38;102192.53;7387982;19;20072;-83
2022/09/21 02:39:37;;;;;;;5.35;2.38;;;;;;;17.54;73.64;102185.69;7381611;19;20031;-82
2022/09/21 02:42:09;;;;;;;6.40;3.30;;;;;;;17.51;73.72;102180.72;7385665;19;20010;-83
2022/09/21 02:44:45;;;;;;;6.00;2.60;;;;;;;17.48;73.96;102183.69;7385019;19;20018;-82
2022/09/21 02:47:32;;;;;;;8.55;2.70;;;;;;;17.46;74.06;102183.88;7384681;19;20045;-82
2022/09/21 02:50:08;;;;;;;6.65;2.67;;;;;;;17.48;74.77;102181.03;7384246;19;20038;-82
2022/09/21 02:52:39;;;;;;;5.60;1.95;;;;;;;17.50;74.39;102189.69;7384731;19;20695;-82
2022/09/21 02:55:08;;;;;;;7.15;2.38;;;;;;;17.48;73.97;102181.84;7384041;19;20086;-82
2022/09/21 02:57:37;;;;;;;5.40;2.20;;;;;;;17.46;74.23;102178.56;7384298;19;20086;-82
2022/09/21 03:00:05;;;;;;;5.53;2.22;;;;;;;17.46;74.26;102183.03;7382408;19;20018;-82
2022/09/21 03:02:43;;;;;;;6.00;2.17;;;;;;;17.44;74.49;102175.22;7384771;19;20322;-82
2022/09/21 03:05:13;;;;;;;8.00;3.80;;;;;;;17.44;74.70;102177.88;7386968;19;20303;-82
2022/09/21 03:07:41;;;;;;;6.95;2.08;;;;;;;17.45;74.84;102174.22;7384623;19;20835;-82
2022/09/21 03:10:08;;;;;;;8.13;2.50;;;;;;;17.44;74.60;102172.53;7384443;19;20045;-82
2022/09/21 03:12:36;;;;;;;5.07;2.50;;;;;;;17.45;74.86;102168.91;7383913;19;20010;-83
2022/09/21 03:15:04;;;;;;;8.50;2.60;;;;;;;17.44;74.73;102171.72;7385461;19;20023;-82
2022/09/21 03:17:31;;;;;;;7.40;2.83;;;;;;;17.42;74.67;102171.88;7387830;19;20376;-81
2022/09/21 03:19:59;;;;;;;6.97;2.53;;;;;;;17.42;74.89;102168.41;7386624;19;20007;-84
2022/09/21 03:22:26;;;;;;;7.15;3.28;;;;;;;17.39;74.95;102166.06;7387187;19;20015;-82
2022/09/21 03:24:56;;;;;;;7.40;2.42;;;;;;;17.38;74.95;102164.38;7385075;19;20018;-80
2022/09/21 03:27:24;;;;;;;7.40;2.40;;;;;;;17.37;75.25;102168.06;7384613;19;20015;-82
2022/09/21 03:29:51;;;;;;;7.35;2.72;;;;;;;17.36;75.21;102167.22;7382579;19;20017;-82
2022/09/21 03:32:19;;;;;;;7.15;2.17;;;;;;;17.36;75.79;102166.38;7386199;19;20019;-81
2022/09/21 03:34:46;;;;;;;5.72;2.00;;;;;;;17.36;75.30;102172.53;7385663;19;20380;-81
2022/09/21 03:37:13;;;;;;;5.78;2.25;;;;;;;17.36;75.45;102171.72;7388882;19;20337;-82
2022/09/21 03:39:40;;;;;;;4.95;2.28;;;;;;;17.37;75.63;102171.53;7385243;19;20023;-82
2022/09/21 03:42:08;;;;;;;5.70;2.33;;;;;;;17.38;75.43;102167.88;7384478;19;20040;-81
2022/09/21 03:44:36;;;;;;;8.00;3.00;;;;;;;17.39;75.35;102164.22;7380286;19;20010;-83
2022/09/21 03:47:05;;;;;;;9.70;2.75;;;;;;;17.39;75.45;102169.53;7381193;19;20043;-82
2022/09/21 03:49:33;;;;;;;8.05;2.58;;;;;;;17.38;75.19;102169.69;7384059;19;20014;-81
2022/09/21 03:52:04;;;;;;;5.78;2.40;;;;;;;17.37;75.20;102174.19;7384123;19;20018;-81
2022/09/21 03:54:31;;;;;;;8.63;4.10;;;;;;;17.36;75.91;102169.06;7385568;19;20373;-82
2022/09/21 03:56:58;;;;;;;12.63;2.92;;;;;;;17.37;76.13;102168.88;7383890;19;20014;-83
2022/09/21 03:59:25;;;;;;;6.28;2.70;;;;;;;17.38;75.70;102164.38;7385383;19;20011;-83
2022/09/21 04:01:53;;;;;;;6.10;2.33;;;;;;;17.37;75.53;102162.75;7381999;19;20380;-82
2022/09/21 04:04:20;;;;;;;7.75;2.95;;;;;;;17.35;75.60;102162.91;7385316;19;20578;-82
2022/09/21 04:06:47;;;;;;;7.43;2.90;;;;;;;17.33;75.68;102162.22;7381483;19;20022;-83
2022/09/21 04:09:14;;;;;;;6.80;2.22;;;;;;;17.29;75.89;102160.88;7385270;19;20022;-82
2022/09/21 04:11:44;;;;;;;8.13;3.22;;;;;;;17.29;76.49;102158.22;7376976;19;20018;-83
2022/09/21 04:14:12;;;;;;;5.75;2.13;;;;;;;17.29;76.46;102150.25;7383766;19;20028;-81
2022/09/21 04:16:39;;;;;;;7.78;2.90;;;;;;;17.28;76.00;102148.56;7381886;19;20474;-82
2022/09/21 04:19:07;;;;;;;6.82;2.90;;;;;;;17.28;75.88;102142.41;7383530;19;20024;-81
2022/09/21 04:21:34;;;;;;;7.32;2.58;;;;;;;17.27;75.77;102146.09;7381553;19;20103;-82
2022/09/21 04:24:03;;;;;;;7.38;2.53;;;;;;;17.27;75.72;102143.44;7385378;19;20007;-82
2022/09/21 04:26:32;;;;;;;5.38;2.60;;;;;;;17.26;75.93;102141.75;7381648;19;20515;-81
2022/09/21 04:29:00;;;;;;;9.25;3.08;;;;;;;17.27;76.29;102138.91;7382003;19;20010;-82
2022/09/21 04:31:29;;;;;;;6.50;2.38;;;;;;;17.30;75.63;102143.94;7375820;19;20078;-82
2022/09/21 04:33:57;;;;;;;7.00;2.67;;;;;;;17.31;74.95;102142.94;7381340;19;20031;-83
2022/09/21 04:36:26;;;;;;;6.55;2.47;;;;;;;17.31;74.81;102145.59;7382147;19;20006;-82
2022/09/21 04:38:54;;;;;;;6.88;2.58;;;;;;;17.30;74.97;102138.59;7389378;19;20062;-83
2022/09/21 04:41:20;;;;;;;4.85;1.90;;;;;;;17.29;74.57;102147.56;7390595;19;20014;-83
2022/09/21 04:43:47;;;;;;;7.07;3.85;;;;;;;17.31;74.92;102147.44;7389043;19;20011;-84
2022/09/21 04:46:17;;;;;;;7.68;2.90;;;;;;;17.32;75.32;102144.56;7388357;19;20018;-82
2022/09/21 04:48:45;;;;;;;8.48;3.00;;;;;;;17.34;74.79;102145.25;7392647;19;20079;-82
2022/09/21 04:51:14;;;;;;;6.57;2.90;;;;;;;17.36;74.68;102143.28;7388967;19;20480;-83
2022/09/21 04:53:42;;;;;;;8.07;2.47;;;;;;;17.37;74.56;102141.44;7391604;19;20043;-82
2022/09/21 04:56:13;;;;;;;7.45;2.75;;;;;;;17.36;74.49;102139.78;7388274;19;20021;-82
2022/09/21 04:58:40;;;;;;;8.07;2.63;;;;;;;17.35;74.64;102146.94;7387286;19;20018;-82
2022/09/21 05:01:07;;;;;;;6.43;2.42;;;;;;;17.34;75.05;102142.59;7384648;19;20018;-82
2022/09/21 05:03:34;;;;;;;7.22;2.88;;;;;;;17.35;75.06;102138.13;7387806;19;20352;-83
2022/09/21 05:06:01;;;;;;;5.50;2.40;;;;;;;17.34;74.31;102134.63;7387168;19;20018;-82
2022/09/21 05:11:11;;;;;;;6.78;2.22;;;;;;;17.33;73.68;102137.44;7386088;19;20018;-81
2022/09/21 05:13:39;;;;;;;5.53;1.87;;;;;;;17.31;73.88;102134.13;7393650;19;20479;-81
2022/09/21 05:16:07;;;;;;;5.93;2.15;;;;;;;17.29;74.24;102144.09;7383854;19;20283;-82
2022/09/21 05:18:34;;;;;;;5.68;2.25;;;;;;;17.27;74.86;102138.91;7390149;19;20046;-83
2022/09/21 05:21:03;;;;;;;7.78;2.65;;;;;;;17.27;75.17;102144.22;7388801;19;20018;-83
2022/09/21 05:23:31;;;;;;;6.18;2.35;;;;;;;17.28;75.14;102143.25;7389665;19;20496;-82
2022/09/21 05:25:58;;;;;;;7.18;2.38;;;;;;;17.28;74.97;102137.09;7389957;19;20014;-83
2022/09/21 05:28:27;;;;;;;5.30;2.30;;;;;;;17.24;75.11;102136.59;7388535;19;20018;-81
2022/09/21 05:31:10;;;;;;;6.30;2.22;;;;;;;17.25;75.28;102145.41;7381530;19;20018;-82
2022/09/21 05:33:51;;;;;;;6.75;2.58;;;;;;;17.23;75.46;102137.59;7389970;19;20082;-82
2022/09/21 05:36:48;;;;;;;6.32;2.67;;;;;;;17.27;76.00;102146.09;7387071;19;20014;-82
2022/09/21 05:39:16;;;;;;;8.05;2.85;;;;;;;17.25;75.51;102146.25;7386485;19;20017;-81
2022/09/21 05:41:44;;;;;;;7.32;3.08;;;;;;;17.27;75.16;102140.78;7387954;19;20014;-82
2022/09/21 05:44:13;;;;;;;6.47;2.65;;;;;;;17.25;75.21;102143.59;7388748;19;20019;-82
2022/09/21 05:46:51;;;;;;;3.80;1.58;;;;;;;17.22;75.28;102146.56;7386588;19;20014;-81
2022/09/21 05:49:30;;;;;;;5.40;1.90;;;;;;;17.22;75.51;102145.75;7385861;19;20011;-81
2022/09/21 05:52:12;;;;;;;3.88;1.50;;;;;;;17.21;75.52;102165.38;7386343;19;20398;-82
2022/09/21 05:54:40;;;;;;;6.85;2.10;;;;;;;17.21;75.78;102160.88;7387747;19;20018;-80
2022/09/21 05:57:28;;;;;;;6.68;2.00;;;;;;;17.21;75.76;102147.56;7388197;19;20086;-82
2022/09/21 05:59:59;;;;;;;4.15;1.77;;;;;;;17.22;75.22;102161.72;7384986;19;20383;-81
2022/09/21 06:02:53;;;;;;;8.85;2.50;;;;;;;17.22;74.82;102151.88;7384917;19;20027;-82
2022/09/21 06:05:21;;;;;;;3.95;1.90;;;;;;;17.22;74.34;102153.72;7384853;19;20018;-81
2022/09/21 06:07:48;;;;;;;6.65;3.35;;;;;;;17.22;74.04;102151.06;7387777;19;20018;-82
2022/09/21 06:10:15;;;;;;;5.20;2.40;;;;;;;17.24;75.24;102157.88;7385687;19;20019;-82
2022/09/21 06:12:42;;;;;;;4.53;1.90;;;;;;;17.24;74.56;102157.88;7389414;19;20518;-82
2022/09/21 06:15:12;;;;;;;4.32;1.92;;;;;;;17.25;74.17;102170.19;7384371;19;20299;-81
2022/09/21 06:17:39;;;;;;;6.10;1.80;;;;;;;17.26;73.83;102171.03;7386208;19;20285;-84
2022/09/21 06:20:07;;;;;;;3.97;1.80;;;;;;;17.23;73.66;102169.50;7383703;19;20011;-80
2022/09/21 06:22:34;;;;;;;5.25;1.88;;;;;;;17.24;73.53;102170.34;7387782;19;20436;-83
2022/09/21 06:25:01;;;;;;;5.38;1.98;;;;;;;17.22;73.65;102180.34;7388646;19;20029;-82
2022/09/21 06:27:28;;;;;;;6.25;1.88;;;;;;;17.21;73.63;102170.69;7388301;19;20017;-83
2022/09/21 06:29:56;;;;;;;5.18;2.25;;;;;;;17.22;73.51;102172.34;7383675;19;20606;-82
2022/09/21 06:32:24;;;;;;;5.05;2.22;;;;;;;17.22;73.68;102178.47;7384179;19;20449;-83
2022/09/21 06:34:50;;;;;;;4.50;1.90;;;;;;;17.22;73.70;102175.81;7384428;19;20049;-83
2022/09/21 06:37:17;;;;;;;5.80;2.47;;;;;;;17.23;73.74;102174.84;7387044;19;20484;-82
2022/09/21 06:39:44;;;;;;;4.30;2.47;;;;;;;17.23;73.69;102182.81;7385669;19;20090;-82
2022/09/21 06:42:12;;;;;;;6.07;2.42;;;;;;;17.27;75.32;102181.47;7386533;19;20049;-82
2022/09/21 06:44:43;;;;;;;5.95;2.15;;;;;;;17.30;74.78;102188.31;7386075;19;20040;-84
2022/09/21 06:47:12;;;;;;;5.65;2.30;;;;;;;17.32;74.21;102173.03;7383288;19;20018;-82
2022/09/21 06:49:40;;;;;;;7.13;1.92;;;;;;;17.33;74.04;102180.00;7386893;19;20022;-83
2022/09/21 06:52:09;;;;;;;6.22;2.38;;;;;;;17.32;73.70;102181.81;7384208;19;20016;-83
2022/09/21 06:54:38;;;;;;;6.30;2.47;;;;;;;17.33;73.68;102170.19;7386021;19;20006;-83
2022/09/21 06:57:10;;;;;;;6.53;2.13;;;;;;;17.39;75.63;102182.03;7385447;19;20026;-83
2022/09/21 06:59:41;;;;;;;6.88;3.03;;;;;;;17.43;76.76;102181.53;7387611;19;20015;-89
2022/09/21 07:02:11;;;;;;;7.50;4.22;;;;;;;17.43;75.13;102186.84;7384207;19;20089;-85
2022/09/21 07:04:43;;;;;;;5.65;3.65;;;;;;;17.44;75.37;102180.53;7387258;19;20023;-85
2022/09/21 07:07:29;;;;;;;6.40;2.63;;;;;;;17.46;74.30;102178.56;7386629;19;20015;-85
2022/09/21 07:09:59;;;;;;;4.43;2.15;;;;;;;17.46;73.62;102177.72;7386847;19;20082;-81
2022/09/21 07:12:33;;;;;;;6.60;2.53;;;;;;;17.47;73.47;102182.84;7384569;19;20014;-81
2022/09/21 07:15:01;;;;;;;7.53;2.38;;;;;;;17.47;73.10;102174.88;7383698;19;20035;-81
2022/09/21 07:17:32;;;;;;;8.73;2.85;;;;;;;17.49;73.27;102180.03;7384940;19;20015;-84
2022/09/21 07:20:01;;;;;;;10.23;3.65;;;;;;;17.51;73.90;102178.88;7385126;19;20527;-81
2022/09/21 07:22:30;;;;;;;6.10;3.35;;;;;;;17.50;73.34;102177.22;7383921;19;20018;-83
2022/09/21 07:24:58;;;;;;;9.18;3.25;;;;;;;17.51;73.06;102173.56;7385399;19;20673;-81
2022/09/21 07:27:27;;;;;;;11.88;3.10;;;;;;;17.51;72.76;102173.56;7346354;19;20018;-82
2022/09/21 07:30:02;;;;;;;8.10;2.80;;;;;;;17.51;72.54;102175.41;7382332;19;20016;-82
2022/09/21 07:32:35;;;;;;;7.80;3.03;;;;;;;17.52;73.48;102185.06;7383719;19;20033;-83
2022/09/21 07:35:23;;;;;;;7.72;2.55;;;;;;;17.53;73.04;102179.53;7380604;19;20042;-83
2022/09/21 07:37:55;;;;;;;7.60;3.30;;;;;;;17.55;73.99;102174.06;7382940;19;20018;-82
2022/09/21 07:40:24;;;;;;;8.10;3.03;;;;;;;17.59;73.47;102180.75;7382467;19;20071;-83
2022/09/21 07:42:52;;;;;;;5.88;2.95;;;;;;;17.60;72.97;102176.25;7381086;19;20014;-84
2022/09/21 07:45:19;;;;;;;9.98;3.15;;;;;;;17.61;73.58;102177.94;7380918;19;20504;-82
2022/09/21 07:47:46;;;;;;;8.90;3.10;;;;;;;17.61;73.38;102180.59;7384213;19;20761;-84
2022/09/21 07:50:13;;;;;;;7.00;2.90;;;;;;;17.61;72.80;102180.59;7382987;19;20022;-85
2022/09/21 07:52:41;;;;;;;6.10;3.20;;;;;;;17.61;72.44;102185.91;7381666;19;20480;-83
2022/09/21 07:55:08;;;;;;;8.45;2.60;;;;;;;17.63;72.72;102182.06;7384966;19;20389;-84
2022/09/21 08:00:12;;;;;;;6.25;2.95;;;;;;;17.68;73.89;102178.91;7378846;19;20110;-84
2022/09/21 08:02:40;;;;;;;12.73;3.33;;;;;;;17.70;74.71;102183.09;7382973;19;20015;-83
2022/09/21 08:05:13;;;;;;;11.73;3.63;;;;;;;17.79;76.78;102176.75;7384363;19;20007;-83
2022/09/21 08:07:41;;;;;;;9.32;3.17;;;;;;;17.87;78.09;102179.44;7385609;19;20535;-83
2022/09/21 08:10:08;;;;;;;10.55;3.88;;;;;;;17.93;76.91;102185.91;7384151;19;20015;-83
2022/09/21 08:12:38;;;;;;;12.15;3.65;;;;;;;17.97;76.68;102179.25;7384888;19;20018;-83
2022/09/21 08:15:06;;;;;;;6.60;3.22;;;;;;;17.98;74.53;102180.09;7389352;19;20039;-84
2022/09/21 08:17:50;;;;;;;8.52;3.22;;;;;;;18.01;76.02;102183.25;7392207;19;20025;-83
2022/09/21 08:20:18;;;;;;;10.02;4.35;;;;;;;18.02;75.21;102192.06;7387617;19;20019;-84
2022/09/21 08:22:45;;;;;;;9.25;3.63;;;;;;;18.06;75.86;102196.91;7392054;19;20018;-83
2022/09/21 08:25:12;;;;;;;12.60;3.92;;;;;;;18.06;75.85;102188.06;7389588;19;20014;-82
2022/09/21 08:27:41;;;;;;;9.25;3.65;;;;;;;18.04;75.26;102193.56;7391289;19;20756;-84
2022/09/21 08:30:09;;;;;;;14.50;4.03;;;;;;;18.03;74.66;102188.41;7387520;19;20014;-83
2022/09/21 08:32:36;;;;;;;8.40;3.50;;;;;;;18.01;74.39;102193.91;7388586;19;20014;-84
2022/09/21 08:35:17;;;;;;;11.27;3.65;;;;;;;17.98;73.17;102188.09;7390172;19;20014;-84
2022/09/21 08:37:44;;;;;;;7.25;3.10;;;;;;;17.95;72.78;102190.06;7390424;19;20025;-85
2022/09/21 08:40:15;;;;;;;8.15;3.90;;;;;;;17.94;72.51;102187.56;7392205;19;20010;-83
2022/09/21 08:42:51;;;;;;;18.65;9.43;;;;;;;17.93;71.84;102191.22;7391047;19;20102;-84
2022/09/21 08:45:20;;;;;;;16.67;8.15;;;;;;;17.92;72.65;102189.59;7390423;19;20025;-84
2022/09/21 08:47:51;;;;;;;11.80;5.28;;;;;;;17.91;73.23;102199.41;7388707;19;20078;-84
2022/09/21 08:50:33;;;;;;;10.60;4.40;;;;;;;17.93;73.29;102197.38;7390943;19;20656;-82
2022/09/21 08:53:11;;;;;;;13.85;4.72;;;;;;;17.91;73.07;102194.06;7388063;19;20033;-82
2022/09/21 08:55:38;;;;;;;28.42;11.70;;;;;;;17.90;72.36;102196.91;7389496;19;20014;-82
2022/09/21 08:58:15;;;;;;;9.57;4.18;;;;;;;17.91;72.29;102196.75;7390408;19;20078;-85
2022/09/21 09:00:42;;;;;;;10.48;3.97;;;;;;;17.92;71.80;102193.09;7384527;19;20029;-84
2022/09/21 09:03:24;;;;;;;12.38;3.78;;;;;;;17.93;71.55;102204.53;7391469;19;20102;-84
2022/09/21 09:06:11;;;;;;;10.75;4.25;;;;;;;17.94;71.82;102203.56;7390926;19;20015;-83
2022/09/21 09:08:48;;;;;;;9.35;3.60;;;;;;;17.97;71.28;102205.06;7391428;19;20512;-81
2022/09/21 09:11:32;;;;;;;10.20;3.70;;;;;;;17.97;70.93;102205.06;7386963;19;20482;-84
2022/09/21 09:14:08;;;;;;;16.00;3.83;;;;;;;17.97;70.93;102203.22;7391755;19;20488;-85
2022/09/21 09:16:52;;;;;;;10.63;3.75;;;;;;;17.98;70.81;102207.53;7391538;19;20082;-84
2022/09/21 09:19:27;;;;;;;11.43;5.07;;;;;;;17.99;69.80;102203.88;7390722;19;20036;-83
2022/09/21 09:21:55;;;;;;;10.82;4.00;;;;;;;18.00;69.41;102200.22;7390217;19;20048;-84
2022/09/21 09:24:36;;;;;;;11.05;3.70;;;;;;;18.01;69.13;102199.22;7392589;19;20010;-84
2022/09/21 09:27:16;;;;;;;7.72;3.95;;;;;;;18.01;68.65;102203.72;7391784;19;20013;-84
2022/09/21 09:29:59;;;;;;;14.65;4.03;;;;;;;18.03;68.56;102209.72;7387435;19;20045;-85
2022/09/21 09:32:46;;;;;;;11.07;4.55;;;;;;;18.04;69.23;102201.53;7388225;19;20070;-84
2022/09/21 09:35:18;;;;;;;9.77;3.92;;;;;;;18.04;69.21;102204.22;7391865;19;20580;-84
2022/09/21 09:37:47;;;;;;;8.80;3.10;;;;;;;18.05;68.38;102207.72;7390766;19;20029;-83
2022/09/21 09:40:22;;;;;;;12.82;3.55;;;;;;;18.04;68.42;102206.88;7388870;19;20018;-84
2022/09/21 09:43:03;;;;;;;12.25;4.03;;;;;;;18.05;68.58;102203.22;7386855;19;20010;-83
2022/09/21 09:45:42;;;;;;;7.82;3.35;;;;;;;18.05;69.12;102210.38;7386266;19;20032;-84
2022/09/21 09:48:27;;;;;;;8.60;4.13;;;;;;;18.06;69.42;102204.06;7386818;19;20043;-84
2022/09/21 09:50:54;;;;;;;11.70;3.75;;;;;;;18.10;70.16;102208.03;7383573;19;20014;-82
2022/09/21 09:53:25;;;;;;;13.68;4.47;;;;;;;18.10;69.91;102211.53;7388365;19;20022;-83
2022/09/21 09:55:57;;;;;;;18.95;4.35;;;;;;;18.13;69.44;102205.91;7386000;19;20014;-82
2022/09/21 09:58:35;;;;;;;10.52;3.45;;;;;;;18.14;68.93;102209.38;7390000;19;20022;-82
2022/09/21 10:01:04;;;;;;;14.18;5.65;;;;;;;18.14;69.69;102194.22;7385390;19;20007;-82
2022/09/21 10:03:31;;;;;;;10.60;3.78;;;;;;;18.14;69.51;102204.03;7388846;19;20358;-82
2022/09/21 10:05:58;;;;;;;9.65;4.13;;;;;;;18.15;68.72;102208.38;7389129;19;20026;-83
2022/09/21 10:08:29;;;;;;;9.68;4.55;;;;;;;18.15;68.58;102195.88;7388566;19;20018;-82
2022/09/21 10:10:56;;;;;;;9.20;3.90;;;;;;;18.17;69.13;102198.38;7388632;19;20028;-82
2022/09/21 10:13:29;;;;;;;12.38;4.28;;;;;;;18.18;69.04;102192.91;7389413;19;20011;-79
2022/09/21 10:15:58;;;;;;;8.52;3.60;;;;;;;18.20;69.53;102203.38;7382572;19;20369;-82
2022/09/21 10:18:39;;;;;;;11.52;3.92;;;;;;;18.18;69.60;102197.41;7368004;19;20058;-83
2022/09/21 10:21:14;;;;;;;8.88;3.65;;;;;;;18.17;69.40;102198.38;7383841;19;20741;-82
2022/09/21 10:23:47;;;;;;;8.52;3.42;;;;;;;18.17;69.38;102190.38;7382615;19;20042;-82
2022/09/21 10:26:17;;;;;;;7.55;3.13;;;;;;;18.17;69.07;102188.56;7376875;19;20116;-83
2022/09/21 10:28:57;;;;;;;8.55;3.92;;;;;;;18.19;69.13;102191.88;7375949;19;20027;-83
2022/09/21 10:31:27;;;;;;;10.68;4.95;;;;;;;18.20;69.92;102193.53;7357050;19;20265;-83
2022/09/21 10:34:04;;;;;;;11.27;4.82;;;;;;;18.23;68.59;102189.72;7372308;19;20018;-83
2022/09/21 10:36:34;;;;;;;9.75;4.03;;;;;;;18.27;67.85;102189.22;7373429;19;20331;-84
2022/09/21 10:39:20;;;;;;;9.88;3.80;;;;;;;18.30;67.88;102186.19;7377784;19;20043;-84
2022/09/21 10:41:57;;;;;;;7.03;3.33;;;;;;;18.33;67.64;102183.22;7374511;19;20014;-83
2022/09/21 10:44:29;;;;;;;10.80;4.03;;;;;;;18.35;67.94;102183.03;7376790;19;20010;-82
2022/09/21 10:47:13;;;;;;;12.43;3.53;;;;;;;18.38;67.78;102183.53;7372759;19;20035;-82
2022/09/21 10:49:49;;;;;;;8.38;3.70;;;;;;;18.44;67.05;102187.31;7386598;19;20018;-83
2022/09/21 10:52:21;;;;;;;8.40;3.13;;;;;;;18.48;65.84;102179.84;7387645;19;20018;-83
2022/09/21 10:54:51;;;;;;;10.02;3.92;;;;;;;18.52;65.43;102189.16;7385353;19;20018;-83
2022/09/21 10:57:21;;;;;;;10.25;3.88;;;;;;;18.56;65.63;102185.16;7384806;19;20022;-83
2022/09/21 10:59:49;;;;;;;8.27;3.45;;;;;;;18.62;67.17;102187.97;7384896;19;20091;-82
2022/09/21 11:02:30;;;;;;;9.73;4.00;;;;;;;18.67;67.32;102185.63;7384268;19;20010;-83
2022/09/21 11:05:05;;;;;;;9.30;4.10;;;;;;;18.71;66.07;102189.59;7384240;19;20011;-83
2022/09/21 11:07:36;;;;;;;9.13;4.00;;;;;;;18.74;65.17;102185.78;7389078;19;20014;-83
2022/09/21 11:10:16;;;;;;;10.60;3.35;;;;;;;18.80;65.20;102183.22;7384493;19;20412;-85
2022/09/21 11:12:53;;;;;;;10.27;3.88;;;;;;;18.85;65.43;102177.38;7385380;19;20538;-84
2022/09/21 11:15:39;;;;;;;9.15;3.33;;;;;;;18.91;64.21;102171.34;7386667;19;20511;-83
2022/09/21 11:18:19;;;;;;;8.98;3.70;;;;;;;18.93;62.60;102173.84;7385246;19;20019;-84
2022/09/21 11:20:50;;;;;;;6.60;2.80;;;;;;;18.94;62.26;102178.19;7387354;19;20064;-83
2022/09/21 11:23:28;;;;;;;7.30;3.83;;;;;;;18.98;62.63;102176.81;7388635;19;21003;-82
2022/09/21 11:26:10;;;;;;;8.65;3.55;;;;;;;19.05;62.66;102175.94;7389051;19;20006;-83
2022/09/21 11:28:47;;;;;;;6.33;3.10;;;;;;;19.11;62.71;102177.91;7383932;19;20622;-83
2022/09/21 11:31:16;;;;;;;9.75;4.15;;;;;;;19.15;62.65;102175.72;7348090;19;20022;-83
2022/09/21 11:34:02;;;;;;;8.45;3.10;;;;;;;19.19;62.67;102177.88;7367626;19;20014;-83
2022/09/21 11:36:50;;;;;;;6.90;3.72;;;;;;;19.21;62.32;102173.19;7372725;19;20049;-84
2022/09/21 11:39:24;;;;;;;8.88;3.75;;;;;;;19.25;62.99;102170.19;7374282;19;20039;-84
2022/09/21 11:42:02;;;;;;;7.97;3.80;;;;;;;19.29;62.08;102175.00;7372901;19;20021;-84
2022/09/21 11:44:52;;;;;;;10.15;4.47;;;;;;;19.31;62.58;102164.94;7375475;19;21309;-83
2022/09/21 11:47:50;;;;;;;5.32;2.28;;;;;;;19.33;59.25;102154.94;7375876;19;20035;-84
2022/09/21 11:50:27;;;;;;;7.65;2.83;;;;;;;19.34;61.12;102158.44;7381127;19;20018;-83
2022/09/21 11:53:10;;;;;;;7.53;3.55;;;;;;;19.39;65.16;102156.91;7381238;19;20014;-84
2022/09/21 11:55:57;;;;;;;11.77;5.70;;;;;;;19.40;63.59;102152.41;7381613;19;20143;-84